Friday, May 27, 2016
08:27 UTC
  |  Log In   |  Register Free
Airport Search:

Lonesome Pine Airport
(KLNP)

Lonesome Pine Airport Diagram
No Airport Diagram Available

FAA data valid effective Mar 31 2016 - May 26 2016 (unless otherwise noted).

 
 
 
 
 
 
 
 
 
 
 
 
 
 
Current Aviation Weather for KLNP

Weather Summary


The most recent METAR observation for LNP was updated at: 12:55 UTC
METAR for KLNP is not available. Closest METAR is for KVJI
KLNP  (most recent observation was updatred at 27:08 UTC)
270815Z AUTO 18005KT 10SM SCT070 16/15 A3017 RMK AO2 LTG DSNT W

KVJI  (29.9 nm NW)   (most recent observation was updated at 27:08 UTC)
270815Z AUTO 11006KT 7SM CLR 16/16 A3015 RMK AO2 T01640161

KTRI  (31.3 nm NW)   (most recent observation was updated at 27:07 UTC)
270753Z 00000KT 4SM BR BKN004 16/15 A3013 RMK AO2 SLP181 T01610150

TAF for KLNP is not available.
KTRI  (31.3 nm NW)   (most recent observation was updatred at 27:05 UTC)
270536Z 2706/2806 00000KT P6SM FEW040 SCT200 FM270800 00000KT 5SM BR FEW040 SCT250 TEMPO 2710/2713 2SM BR SCT002 FM271300 VRB04KT P6SM SCT050 BKN200 FM271900 19006KT P6SM VCTS SCT050CB BKN200 FM280000 VRB03KT P6SM SCT070 BKN250


GlobalAir.com is loading additional information.
 Current Weather at LNP
61.0 F° (16.0 C°)

North winds at 0.0 mph
Pressure:
30.18 in
Humidity:
94%
Wind:
North at 0.0 mph
Dew Point:
59.0 F° (15.0 C°)
Visibility:
10.00 mi
LNP NOAA Radar




Find All Airport Services Find A Hotel Find A Rental Car Find A Golf Course Find A Restaurant $100 Hamburger



Airport Weather Forecast for KLNP

Translated METAR for KLNP (0815 UTC)
METAR:
KLNP 270815Z AUTO 18005KT 10SM SCT070 16/15 A3017 RMK AO2 LTG DSNT W
Conditions at:
KLNP (Lonesome Pine, VA) observed 0815 UTC 27 May 2016
Temperature:
16°C (60.8°F)
Dewpoint:
15°C (59°F) [RH = 93.8]
Pressure:
30.17 inches Hg (1021.7 mb)
Winds:
from the S (180 degrees) at 5.8 mph (5 knots: 2.6 m/s)
Visibility:
10 mile(s)
Ceiling:
at least 12,000 feet AGL
Clouds:
Scattered Clouds at 7,000 feet AGL
Remarks:
site is un-manned
site is automated and HAS a precipitation sensor

Translated TAF for KTRI (Tri-Cities Rgnl Tn/Va, TN) (0536 UTC)
TAF text:
KTRI 270536Z 2706/2806 00000KT P6SM FEW040 SCT200
Forecast period:
Friday May 27 2016 06:00 UTC - Saturday May 28 2016 06:00 UTC
Forecast type:
FROM: standard forecast or significant change
Winds:
from the N (000 degrees) at 0 mph (0 knots: 0 m/s)
Visibility:
6 or more mile(s) (9.7+ km)
Ceiling:
at least 12,000 feet AGL
Clouds:
Few Clouds at 4,000 feet AGL
Scattered Clouds at 20,000 feet AGL
Weather:
no significant weather observed at this time
TAF text:
FM270800 00000KT 5SM BR FEW040 SCT250
Forecast period:
Friday May 27 2016 08:00 UTC - Friday May 27 2016 13:00 UTC
Forecast type:
FROM: standard forecast or significant change
Winds:
from the N (000 degrees) at 0 mph (0 knots: 0 m/s)
Visibility:
5 mile(s) (8 km)
Ceiling:
at least 12,000 feet AGL
Clouds:
Few Clouds at 4,000 feet AGL
Scattered Clouds at 25,000 feet AGL
Weather:
Moderate Mist
TAF text:
2710/2713 2SM BR SCT002
Forecast period:
Saturday May 28 2016 10:00 UTC - Saturday May 28 2016 13:00 UTC
Forecast type:
FROM: standard forecast or significant change
Winds:
Visibility:
2 mile(s) (3.2 km)
Ceiling:
at least 12,000 feet AGL
Clouds:
Scattered Clouds at 200 feet AGL
Weather:
Moderate Mist
TAF text:
FM271300 VRB04KT P6SM SCT050 BKN200
Forecast period:
Friday May 27 2016 13:00 UTC - Friday May 27 2016 19:00 UTC
Forecast type:
FROM: standard forecast or significant change
Winds:
variable wind direction at 4.6 mph (4 knots: 2.1 m/s)
Visibility:
6 or more mile(s) (9.7+ km)
Ceiling:
20,000 feet AGL
Clouds:
Scattered Clouds at 5,000 feet AGL
Broken Cloud Cover at 20,000 feet AGL
Weather:
no significant weather observed at this time
TAF text:
FM271900 19006KT P6SM VCTS SCT050CB BKN200
Forecast period:
Friday May 27 2016 19:00 UTC - Saturday May 28 2016 00:00 UTC
Forecast type:
FROM: standard forecast or significant change
Winds:
from the S (190 degrees) at 6.9 mph (6 knots: 3.1 m/s)
Visibility:
6 or more mile(s) (9.7+ km)
Ceiling:
20,000 feet AGL
Clouds:
Broken Cloud Cover at 20,000 feet AGL
Weather:
Moderate In Vicinity Thunderstorm
TAF text:
FM280000 VRB03KT P6SM SCT070 BKN250
Forecast period:
Saturday May 28 2016 00:00 UTC - Saturday May 28 2016 06:00 UTC
Forecast type:
FROM: standard forecast or significant change
Winds:
variable wind direction at 3.5 mph (3 knots: 1.5 m/s)
Visibility:
6 or more mile(s) (9.7+ km)
Ceiling:
25,000 feet AGL
Clouds:
Scattered Clouds at 7,000 feet AGL
Broken Cloud Cover at 25,000 feet AGL
Weather:
no significant weather observed at this time
FBO's on the Field
FBO Company Facility Photos Services Transportation Aviation Fuel Prices: Prices include tax
Catering Weather Repair Courtesy Rental Type 100LL JetA JetA+ MOGAS 8087
 
Lonesome Pine Airport

This FBO has not yet been rated
FS:Shell
Last Updated: Apr-26
Login to update fuel prices
SS:
Contact Lonesome Pine AirportMore FBO Information
 
Add another FBO Facility Photos Catering Weather Repair Courtesy Rental Type 100LL JetA JetA+ MOGAS 8087
Services Transportation Aviation Fuel Prices: Prices include tax


model-print
model-print
model-print
model-print